CheckWX is a tool to help pilots better visualize weather data.  It is not intended as a substitute for an official pre-flight weather briefing.

18:43:11 UTC

KGWO TAF
Greenwood-Leflore Airport
Greenwood, Mississippi, USA
KGWO 201727Z 2018/2118 16008KT P6SM SCT250

Sep-20@
18:00 UTC

Sep-20 @ 18:00 UTC

Sep-21@
18:00 UTC

Sep-21 @ 18:00 UTC

KGWO 201727Z 2018/2118 16008KT P6SM SCT250
Wind
  • 160° at 8 KTS
Cloud Levels
  • Scattered at 25,000' AGL